createdAt,value
2022-10-31T00:00:56.912Z,96186.28
2022-10-31T00:03:24.480Z,96202.06
2022-10-31T00:05:51.909Z,96179.75
2022-10-31T00:08:19.916Z,96183.03
2022-10-31T00:10:47.638Z,96174.72
2022-10-31T00:13:16.255Z,96199.59
2022-10-31T00:15:43.822Z,96146.75
2022-10-31T00:18:12.188Z,96167.44
2022-10-31T00:20:40.058Z,96178.75
2022-10-31T00:23:08.560Z,96183.81
2022-10-31T00:25:39.143Z,96175.06
2022-10-31T00:28:08.225Z,96164.50
2022-10-31T00:30:35.722Z,96167.06
2022-10-31T00:33:06.529Z,96166.91
2022-10-31T00:35:34.017Z,96170.19
2022-10-31T00:38:01.713Z,96166.31
2022-10-31T00:40:29.090Z,96156.63
2022-10-31T00:42:56.553Z,96159.03
2022-10-31T00:45:24.381Z,96168.13
2022-10-31T00:47:52.003Z,96153.19
2022-10-31T00:50:19.467Z,96155.75
2022-10-31T00:52:46.862Z,96154.66
2022-10-31T00:55:14.293Z,96128.31
2022-10-31T00:57:41.717Z,96151.06
2022-10-31T01:00:10.123Z,96151.06
2022-10-31T01:02:37.683Z,96141.78
2022-10-31T01:05:05.561Z,96160.31
2022-10-31T01:07:32.999Z,96149.00
2022-10-31T01:10:01.016Z,96135.00
2022-10-31T01:12:30.108Z,96128.84
2022-10-31T01:14:58.049Z,96144.44
2022-10-31T01:17:25.542Z,96124.53
2022-10-31T01:19:52.903Z,96123.06
2022-10-31T01:22:20.284Z,96155.34
2022-10-31T01:24:47.733Z,96135.50
2022-10-31T01:27:15.059Z,96124.97
2022-10-31T01:29:42.481Z,96144.53
2022-10-31T01:32:09.959Z,96134.84
2022-10-31T01:34:37.336Z,96118.47
2022-10-31T01:37:04.733Z,96121.66
2022-10-31T01:39:34.566Z,96110.81
2022-10-31T01:42:02.316Z,96114.09
2022-10-31T01:44:29.647Z,96127.38
2022-10-31T01:47:06.843Z,96109.53
2022-10-31T01:49:39.278Z,96113.72
2022-10-31T01:52:13.501Z,96114.94
2022-10-31T01:54:48.767Z,96111.53
2022-10-31T01:57:17.561Z,96113.97
2022-10-31T01:59:50.128Z,96108.41
2022-10-31T02:02:19.635Z,96120.59
2022-10-31T02:04:49.077Z,96115.97
2022-10-31T02:07:28.063Z,96105.56
2022-10-31T02:10:01.562Z,96113.38
2022-10-31T02:12:33.058Z,96108.84
2022-10-31T02:15:01.914Z,96110.72
2022-10-31T02:17:32.718Z,96099.69
2022-10-31T02:20:09.902Z,96116.03
2022-10-31T02:22:53.576Z,96113.47
2022-10-31T02:25:42.479Z,96107.13
2022-10-31T02:28:22.548Z,96107.38
2022-10-31T02:31:16.904Z,96102.41
2022-10-31T02:33:55.107Z,96104.03
2022-10-31T02:36:53.849Z,96115.47
2022-10-31T02:39:36.216Z,96093.91
2022-10-31T02:42:36.235Z,96090.50
2022-10-31T02:45:10.399Z,96092.72
2022-10-31T02:47:43.004Z,96099.53
2022-10-31T02:50:24.900Z,96112.47
2022-10-31T02:52:53.778Z,96108.50
2022-10-31T02:55:24.270Z,96094.47
2022-10-31T02:57:57.827Z,96103.81
2022-10-31T03:00:26.727Z,96107.75
2022-10-31T03:03:18.496Z,96102.53
2022-10-31T03:06:15.843Z,96095.66
2022-10-31T03:09:02.882Z,96103.63
2022-10-31T03:11:45.293Z,96091.78
2022-10-31T03:14:21.415Z,96103.63
2022-10-31T03:16:58.973Z,96096.75
2022-10-31T03:19:43.353Z,96097.78
2022-10-31T03:22:19.208Z,96118.28
2022-10-31T03:24:50.257Z,96097.13
2022-10-31T03:27:25.006Z,96093.41
2022-10-31T03:29:57.485Z,96104.66
2022-10-31T03:32:44.517Z,96100.63
2022-10-31T03:35:17.105Z,96090.25
2022-10-31T03:37:46.404Z,96103.47
2022-10-31T03:40:17.619Z,96076.25
2022-10-31T03:42:53.075Z,96088.59
2022-10-31T03:45:27.332Z,96081.91
2022-10-31T03:47:56.137Z,96089.31
2022-10-31T03:50:27.099Z,96079.38
2022-10-31T03:53:02.704Z,96085.78
2022-10-31T03:55:55.165Z,96088.94
2022-10-31T03:58:28.998Z,96070.34
2022-10-31T04:00:58.827Z,96093.91
2022-10-31T04:03:36.332Z,96084.06
2022-10-31T04:06:08.529Z,96098.88
2022-10-31T04:08:51.166Z,96089.91
2022-10-31T04:11:24.643Z,96084.13
2022-10-31T04:14:13.243Z,96095.47
2022-10-31T04:16:45.292Z,96087.31
2022-10-31T04:19:13.823Z,96079.91
2022-10-31T04:21:44.512Z,96083.44
2022-10-31T04:24:12.705Z,96090.91
2022-10-31T04:26:41.065Z,96080.78
2022-10-31T04:29:08.591Z,96083.63
2022-10-31T04:31:35.967Z,96085.09
2022-10-31T04:34:03.429Z,96073.03
2022-10-31T04:36:30.987Z,96083.84
2022-10-31T04:38:58.629Z,96086.84
2022-10-31T04:41:48.132Z,96080.41
2022-10-31T04:44:17.111Z,96078.59
2022-10-31T04:46:47.932Z,96072.19
2022-10-31T04:49:15.334Z,96059.19
2022-10-31T04:51:43.115Z,96089.59
2022-10-31T04:54:10.570Z,96071.13
2022-10-31T04:56:55.856Z,96065.47
2022-10-31T04:59:23.906Z,96091.09
2022-10-31T05:01:55.191Z,96073.22
2022-10-31T05:04:39.305Z,96064.97
2022-10-31T05:07:06.873Z,96068.13
2022-10-31T05:09:34.322Z,96084.00
2022-10-31T05:12:01.674Z,96084.94
2022-10-31T05:14:48.732Z,96091.81
2022-10-31T05:17:45.915Z,96095.25
2022-10-31T05:20:33.868Z,96084.25
2022-10-31T05:23:03.991Z,96087.00
2022-10-31T05:25:31.674Z,96091.25
2022-10-31T05:28:03.651Z,96083.28
2022-10-31T05:30:32.508Z,96071.16
2022-10-31T05:33:00.891Z,96104.66
2022-10-31T05:35:43.303Z,96075.28
2022-10-31T05:38:33.217Z,96060.06
2022-10-31T05:41:10.592Z,96066.44
2022-10-31T05:43:39.573Z,96076.03
2022-10-31T05:46:07.850Z,96075.69
2022-10-31T05:49:07.655Z,96085.78
2022-10-31T05:52:10.239Z,96083.88
2022-10-31T05:54:45.202Z,96092.34
2022-10-31T05:57:12.578Z,96080.63
2022-10-31T05:59:40.210Z,96102.03
2022-10-31T06:02:07.890Z,96091.38
2022-10-31T06:05:14.333Z,96101.78
2022-10-31T06:07:42.593Z,96094.59
2022-10-31T06:10:11.930Z,96093.31
2022-10-31T06:12:41.792Z,96085.34
2022-10-31T06:15:24.120Z,96082.09
2022-10-31T06:18:05.238Z,96086.00
2022-10-31T06:20:45.478Z,96092.56
2022-10-31T06:23:12.941Z,96100.16
2022-10-31T06:25:42.333Z,96091.22
2022-10-31T06:28:12.191Z,96096.19
2022-10-31T06:31:02.583Z,96105.09
2022-10-31T06:33:32.120Z,96097.94
2022-10-31T06:36:02.796Z,96112.50
2022-10-31T06:38:30.476Z,96113.63
2022-10-31T06:40:58.956Z,96108.72
2022-10-31T06:43:27.932Z,96109.91
2022-10-31T06:46:18.449Z,96111.84
2022-10-31T06:49:08.364Z,96110.47
2022-10-31T06:51:43.586Z,96129.91
2022-10-31T06:54:10.985Z,96128.44
2022-10-31T06:56:38.692Z,96117.75
2022-10-31T06:59:06.371Z,96116.34
2022-10-31T07:01:53.810Z,96122.16
2022-10-31T07:04:21.442Z,96112.59
2022-10-31T07:06:51.931Z,96115.97
2022-10-31T07:09:20.624Z,96121.81
2022-10-31T07:11:49.042Z,96131.84
2022-10-31T07:14:16.650Z,96120.06
2022-10-31T07:16:44.055Z,96131.09
2022-10-31T07:19:15.026Z,96120.78
2022-10-31T07:21:43.024Z,96128.41
2022-10-31T07:24:14.716Z,96118.97
2022-10-31T07:26:47.234Z,96141.91
2022-10-31T07:29:15.597Z,96136.91
2022-10-31T07:31:43.076Z,96125.19
2022-10-31T07:34:15.941Z,96127.91
2022-10-31T07:37:02.011Z,96146.53
2022-10-31T07:39:30.915Z,96128.69
2022-10-31T07:42:00.539Z,96135.88
2022-10-31T07:44:28.647Z,96127.53
2022-10-31T07:47:01.849Z,96129.19
2022-10-31T07:49:49.399Z,96128.88
2022-10-31T07:52:37.008Z,96138.38
2022-10-31T07:55:24.318Z,96135.03
2022-10-31T07:58:03.063Z,96149.66
2022-10-31T08:00:32.510Z,96153.47
2022-10-31T08:03:01.507Z,96134.13
2022-10-31T08:05:47.652Z,96137.59
2022-10-31T08:08:36.070Z,96140.19
2022-10-31T08:11:06.826Z,96145.63
2022-10-31T08:13:36.062Z,96133.53
2022-10-31T08:16:05.599Z,96134.66
2022-10-31T08:18:38.691Z,96137.75
2022-10-31T08:21:12.992Z,96134.69
2022-10-31T08:23:41.597Z,96133.16
2022-10-31T08:26:09.289Z,96133.53
2022-10-31T08:28:36.947Z,96132.41
2022-10-31T08:31:04.507Z,96131.66
2022-10-31T08:33:41.003Z,96125.78
2022-10-31T08:36:21.787Z,96150.72
2022-10-31T08:38:57.746Z,96134.38
2022-10-31T08:41:29.430Z,96142.00
2022-10-31T08:43:57.092Z,96130.94
2022-10-31T08:46:24.593Z,96130.94
2022-10-31T08:48:52.194Z,96150.38
2022-10-31T08:51:20.663Z,96135.19
2022-10-31T08:54:04.284Z,96143.69
2022-10-31T08:57:17.260Z,96140.00
2022-10-31T09:00:18.276Z,96149.94
2022-10-31T09:03:22.259Z,96161.00
2022-10-31T16:22:49.192Z,96268.81
2022-10-31T16:25:38.149Z,96272.03
2022-10-31T16:28:24.548Z,96272.88
2022-10-31T16:30:56.776Z,96283.38
2022-10-31T16:33:38.990Z,96269.78
2022-10-31T16:36:36.324Z,96271.47
2022-10-31T16:39:04.754Z,96257.34
2022-10-31T16:41:35.900Z,96254.66
2022-10-31T16:44:05.755Z,96263.50
2022-10-31T16:46:33.243Z,96253.97
2022-10-31T16:49:00.568Z,96252.16
2022-10-31T16:51:27.982Z,96241.47
2022-10-31T16:53:56.134Z,96250.75
2022-10-31T16:56:31.091Z,96247.44
2022-10-31T16:59:08.223Z,96251.56
2022-10-31T17:01:37.449Z,96251.63
2022-10-31T17:04:04.895Z,96251.38
2022-10-31T17:06:32.316Z,96251.47
2022-10-31T17:09:00.954Z,96246.59
2022-10-31T17:11:29.782Z,96258.84
2022-10-31T17:14:03.667Z,96256.25
2022-10-31T17:16:34.255Z,96239.69
2022-10-31T17:19:04.651Z,96241.03
2022-10-31T17:21:32.749Z,96242.59
2022-10-31T17:24:00.477Z,96241.84
2022-10-31T17:26:28.040Z,96229.16
2022-10-31T17:29:02.118Z,96250.75
2022-10-31T17:31:33.344Z,96256.13
2022-10-31T17:34:02.571Z,96248.41
2022-10-31T17:36:32.558Z,96251.03
2022-10-31T17:39:00.572Z,96291.31
2022-10-31T17:41:28.442Z,96272.06
2022-10-31T17:43:56.928Z,96282.66
2022-10-31T17:46:24.826Z,96261.56
2022-10-31T17:48:54.722Z,96264.66
2022-10-31T17:51:22.193Z,96262.81
2022-10-31T17:53:49.717Z,96259.69
2022-10-31T17:56:17.449Z,96248.31
2022-10-31T17:58:44.940Z,96245.88
2022-10-31T18:01:16.279Z,96260.56
2022-10-31T18:03:44.524Z,96267.09
2022-10-31T18:06:14.644Z,96260.25
2022-10-31T18:08:42.606Z,96263.31
2022-10-31T18:11:21.961Z,96276.63
2022-10-31T18:14:12.459Z,96261.97
2022-10-31T18:16:41.601Z,96249.94
2022-10-31T18:19:13.527Z,96286.59
2022-10-31T18:21:41.070Z,96260.41
2022-10-31T18:24:10.205Z,96261.81
2022-10-31T18:26:37.796Z,96244.63
2022-10-31T18:29:07.148Z,96235.78
2022-10-31T18:31:34.717Z,96252.47
2022-10-31T18:34:02.166Z,96262.38
2022-10-31T18:36:29.915Z,96246.69
2022-10-31T18:38:57.752Z,96240.97
2022-10-31T18:41:25.434Z,96260.16
2022-10-31T18:43:56.409Z,96254.72
2022-10-31T18:46:23.912Z,96245.88
2022-10-31T18:48:51.383Z,96232.50
2022-10-31T18:51:18.974Z,96240.50
2022-10-31T18:53:54.186Z,96244.44
2022-10-31T18:56:22.886Z,96249.38
2022-10-31T18:58:56.566Z,96252.13
2022-10-31T19:01:26.791Z,96261.31
2022-10-31T19:03:55.986Z,96247.94
2022-10-31T19:06:25.952Z,96269.34
2022-10-31T19:09:01.812Z,96255.16
2022-10-31T19:11:32.742Z,96257.59
2022-10-31T19:14:00.566Z,96258.25
2022-10-31T19:16:28.989Z,96256.69
2022-10-31T19:19:00.280Z,96242.16
2022-10-31T19:21:28.395Z,96246.38
2022-10-31T19:23:56.642Z,96255.59
2022-10-31T19:26:25.384Z,96243.59
2022-10-31T19:28:54.619Z,96240.53
2022-10-31T19:31:22.531Z,96249.06
2022-10-31T19:33:50.707Z,96246.75
2022-10-31T19:36:20.906Z,96255.97
2022-10-31T19:38:52.144Z,96246.34
2022-10-31T19:41:23.551Z,96259.75
2022-10-31T19:43:52.263Z,96255.59
2022-10-31T19:46:22.945Z,96251.06
2022-10-31T19:49:01.546Z,96244.22
2022-10-31T19:51:29.936Z,96244.53
2022-10-31T19:53:57.503Z,96257.13
2022-10-31T19:56:26.132Z,96257.94
2022-10-31T19:58:53.791Z,96249.25
2022-10-31T20:01:23.937Z,96241.16
2022-10-31T20:03:52.305Z,96248.03
2022-10-31T20:06:24.855Z,96254.09
2022-10-31T20:08:52.719Z,96246.50
2022-10-31T20:11:22.320Z,96242.06
2022-10-31T20:13:50.046Z,96254.78
2022-10-31T20:16:19.057Z,96249.75
2022-10-31T20:18:48.093Z,96249.81
2022-10-31T20:21:21.994Z,96254.41
2022-10-31T20:23:50.573Z,96255.16
2022-10-31T20:26:20.284Z,96249.13
2022-10-31T20:28:47.821Z,96239.16
2022-10-31T20:31:18.165Z,96247.19
2022-10-31T20:33:45.728Z,96251.81
2022-10-31T20:36:13.770Z,96263.25
2022-10-31T20:38:42.608Z,96250.97
2022-10-31T20:41:11.462Z,96251.78
2022-10-31T20:43:39.371Z,96257.13
2022-10-31T20:46:12.502Z,96254.47
2022-10-31T20:48:40.388Z,96242.28
2022-10-31T20:51:12.013Z,96241.84
2022-10-31T20:53:39.903Z,96245.72
2022-10-31T20:56:15.810Z,96250.38
2022-10-31T20:58:44.591Z,96255.00
2022-10-31T21:01:23.248Z,96226.56
2022-10-31T21:03:51.916Z,96242.72
2022-10-31T21:06:20.915Z,96250.13
2022-10-31T21:08:49.005Z,96236.00
2022-10-31T21:11:19.250Z,96242.13
2022-10-31T21:13:48.383Z,96254.63
2022-10-31T21:16:22.382Z,96233.91
2022-10-31T21:18:50.537Z,96245.00
2022-10-31T21:21:21.051Z,96236.25
2022-10-31T21:23:48.638Z,96233.88
2022-10-31T21:26:19.576Z,96236.28
2022-10-31T21:28:47.922Z,96227.44
2022-10-31T21:31:18.057Z,96243.53
2022-10-31T21:33:52.672Z,96246.59
2022-10-31T21:36:21.526Z,96249.25
2022-10-31T21:38:52.846Z,96247.03
2022-10-31T21:41:20.908Z,96255.06
2022-10-31T21:43:50.662Z,96250.88
2022-10-31T21:46:20.572Z,96252.31
2022-10-31T21:48:48.849Z,96253.13
2022-10-31T21:51:19.093Z,96258.09
2022-10-31T21:54:05.468Z,96248.75
2022-10-31T21:56:33.725Z,96248.19
2022-10-31T21:59:01.649Z,96256.09
2022-10-31T22:01:30.285Z,96251.16
2022-10-31T22:03:58.959Z,96259.63
2022-10-31T22:06:28.127Z,96262.63
2022-10-31T22:08:55.619Z,96250.06
2022-10-31T22:11:23.298Z,96261.94
2022-10-31T22:13:51.159Z,96260.09
2022-10-31T22:16:22.210Z,96259.66
2022-10-31T22:18:54.191Z,96255.84
2022-10-31T22:21:24.419Z,96261.59
2022-10-31T22:23:57.956Z,96252.41
2022-10-31T22:26:28.165Z,96263.91
2022-10-31T22:29:02.544Z,96257.41
2022-10-31T22:31:31.952Z,96258.66
2022-10-31T22:33:59.756Z,96275.72
2022-10-31T22:36:29.627Z,96254.00
2022-10-31T22:38:57.865Z,96253.94
2022-10-31T22:41:28.042Z,96241.22
2022-10-31T22:43:56.256Z,96250.53
2022-10-31T22:46:26.982Z,96253.94
2022-10-31T22:49:02.527Z,96226.28
2022-10-31T22:51:32.465Z,96246.34
2022-10-31T22:54:00.460Z,96245.19
2022-10-31T22:56:30.598Z,96262.78
2022-10-31T22:58:59.068Z,96249.31
2022-10-31T23:01:30.554Z,96255.78
2022-10-31T23:03:58.668Z,96259.53
2022-10-31T23:06:30.420Z,96226.38
2022-10-31T23:08:59.327Z,96261.31
2022-10-31T23:11:32.917Z,96257.00
2022-10-31T23:14:14.269Z,96249.41
2022-10-31T23:16:53.985Z,96244.16
2022-10-31T23:19:26.672Z,96246.41
2022-10-31T23:22:00.669Z,96237.56
2022-10-31T23:24:42.856Z,96244.09
2022-10-31T23:27:12.154Z,96243.25
2022-10-31T23:29:39.531Z,96256.16
2022-10-31T23:32:11.071Z,96252.69
2022-10-31T23:34:38.805Z,96250.69
2022-10-31T23:39:33.907Z,96238.44
2022-10-31T23:42:01.694Z,96244.88
2022-10-31T23:44:29.225Z,96249.81
2022-10-31T23:46:56.781Z,96246.88
2022-10-31T23:49:24.347Z,96245.78
2022-10-31T23:51:52.193Z,96243.13
2022-10-31T23:54:19.709Z,96235.16
2022-10-31T23:56:47.197Z,96241.19
2022-10-31T23:59:14.587Z,96227.81
